Terminal Aerodrome Forecast
Issued by NWS

Home | Current Version | Previous Version | Graphics & Text | Print | Product List | Glossary On
Versions: 1 2 3 4 5 6 7 8 9 10 11 12 13 14 15 16 17
000
FTUS43 KMPX 241722
TAFRNH
TAF
KRNH 241722Z 2418/2518 06006KT P6SM SCT030 BKN045
     FM250100 VRB03KT P6SM SCT060
     FM251100 11002KT 4SM BR SCT015
     FM251400 13006KT P6SM BKN025 BKN050=

USA.gov is the U.S. government's official web portal to all federal, state and local government web resources and services.